Time;durP1;ratioP1;P1;durP2;ratioP2;P2;SDS_P1;SDS_P2;PMS_P1;PMS_P2;Temp;Humidity;BMP_temperature;BMP_pressure;BME280_temperature;BME280_humidity;BME280_pressure;Samples;Min_cycle;Max_cycle;Signal;HPM_P1;HPM_P2
2023/07/15 00:01:06;;;;;;;4.97;2.55;;;;;;;22.97;44.92;100317.50;5019729;28;20397;-83
2023/07/15 00:03:32;;;;;;;4.80;2.60;;;;;;;22.96;44.52;100305.88;5025726;28;20066;-82
2023/07/15 00:05:57;;;;;;;4.78;2.88;;;;;;;23.05;44.33;100314.88;5029807;28;20466;-83
2023/07/15 00:08:23;;;;;;;3.17;2.72;;;;;;;23.00;44.81;100320.75;5032438;28;20029;-83
2023/07/15 00:10:48;;;;;;;4.63;2.85;;;;;;;22.97;44.60;100312.09;5020174;28;20441;-83
2023/07/15 00:13:16;;;;;;;3.75;2.78;;;;;;;22.85;44.33;100308.78;5028561;28;20041;-83
2023/07/15 00:15:43;;;;;;;5.18;3.00;;;;;;;22.82;45.05;100319.84;5019444;28;20026;-83
2023/07/15 00:18:14;;;;;;;5.88;2.80;;;;;;;22.80;44.88;100306.53;5016718;28;20075;-83
2023/07/15 00:20:43;;;;;;;5.57;2.70;;;;;;;22.80;44.60;100305.66;5024705;28;20036;-83
2023/07/15 00:23:21;;;;;;;2.67;2.22;;;;;;;22.83;44.66;100310.75;5028480;28;20064;-83
2023/07/15 00:25:47;;;;;;;3.75;2.42;;;;;;;22.78;44.64;100302.28;5025995;28;20032;-83
2023/07/15 00:28:13;;;;;;;3.40;2.42;;;;;;;22.76;44.23;100298.91;5026443;28;20025;-83
2023/07/15 00:30:38;;;;;;;5.75;2.70;;;;;;;22.67;44.60;100309.59;5031212;28;20045;-82
2023/07/15 00:33:08;;;;;;;7.22;3.25;;;;;;;22.71;44.38;100299.38;5026201;28;20029;-83
2023/07/15 00:35:33;;;;;;;5.40;2.40;;;;;;;22.67;44.27;100306.06;5023968;28;20026;-83
2023/07/15 00:37:59;;;;;;;7.85;3.05;;;;;;;22.65;45.17;100302.66;5026931;28;20409;-82
2023/07/15 00:40:25;;;;;;;5.38;2.85;;;;;;;;;;5024882;28;20029;-82
2023/07/15 00:43:30;;;;;;;5.15;3.05;;;;;;;22.70;44.83;100310.28;5024869;28;20535;-82
2023/07/15 00:46:23;;;;;;;4.63;2.70;;;;;;;22.65;44.87;100308.06;5026283;28;20416;-82
2023/07/15 00:48:57;;;;;;;3.40;2.97;;;;;;;22.56;45.79;100312.50;5033381;28;20061;-83
2023/07/15 00:51:24;;;;;;;6.00;2.60;;;;;;;22.54;45.10;100313.66;5029566;28;20369;-82
2023/07/15 00:53:49;;;;;;;6.10;2.80;;;;;;;22.53;44.95;100309.28;5023407;28;20084;-82
2023/07/15 00:56:16;;;;;;;4.32;2.67;;;;;;;22.51;45.05;100313.97;5019915;28;20424;-82
2023/07/15 00:58:41;;;;;;;3.42;2.70;;;;;;;22.63;44.38;100316.28;5020039;28;20040;-82
2023/07/15 01:01:10;;;;;;;6.28;2.55;;;;;;;22.69;44.26;100322.91;5021246;28;20393;-82
2023/07/15 01:03:37;;;;;;;4.30;2.20;;;;;;;22.74;44.36;100314.38;5026179;28;20496;-82
2023/07/15 01:06:03;;;;;;;2.35;2.15;;;;;;;22.59;44.49;100314.91;5023497;28;20033;-82
2023/07/15 01:08:28;;;;;;;2.95;2.10;;;;;;;22.54;44.67;100322.59;5021956;28;20033;-82
2023/07/15 01:10:55;;;;;;;3.65;2.30;;;;;;;22.51;44.82;100327.44;5018405;28;20080;-82
2023/07/15 01:13:20;;;;;;;4.55;2.50;;;;;;;22.46;44.96;100325.19;5030262;28;20021;-82
2023/07/15 01:15:46;;;;;;;5.80;2.63;;;;;;;22.37;45.24;100318.00;5023347;28;20027;-82
2023/07/15 01:18:12;;;;;;;5.53;2.25;;;;;;;22.42;44.74;100323.78;5027166;28;20413;-82
2023/07/15 01:20:37;;;;;;;6.80;2.28;;;;;;;22.41;45.13;100324.78;5026231;28;20043;-82
2023/07/15 01:23:03;;;;;;;3.25;2.17;;;;;;;22.40;45.27;100325.81;5029463;28;20025;-82
2023/07/15 01:25:28;;;;;;;2.80;2.40;;;;;;;22.36;45.77;100325.25;5025068;28;20109;-82
2023/07/15 01:27:53;;;;;;;6.72;2.33;;;;;;;22.15;46.55;100316.59;5024396;28;20108;-82
2023/07/15 01:30:19;;;;;;;6.85;2.70;;;;;;;22.14;47.11;100326.47;5022158;28;20396;-82
2023/07/15 01:32:44;;;;;;;3.70;2.58;;;;;;;22.17;47.00;100325.34;5028297;28;20031;-82
2023/07/15 01:35:09;;;;;;;3.45;2.67;;;;;;;22.11;46.37;100321.41;5022504;28;20021;-82
2023/07/15 01:37:35;;;;;;;4.82;2.30;;;;;;;22.02;46.31;100322.28;5027384;28;20088;-82
2023/07/15 01:40:00;;;;;;;8.60;2.30;;;;;;;21.97;47.28;100321.88;5033270;28;20041;-82
2023/07/15 01:42:25;;;;;;;3.88;2.42;;;;;;;21.88;47.63;100322.75;5027487;28;20466;-82
2023/07/15 01:44:50;;;;;;;6.03;2.45;;;;;;;21.84;46.74;100318.66;5016002;28;20084;-82
2023/07/15 01:47:16;;;;;;;2.45;2.25;;;;;;;21.81;47.52;100329.69;5026346;28;20026;-82
2023/07/15 01:49:42;;;;;;;7.43;2.60;;;;;;;21.75;49.43;100328.44;5018503;28;20030;-82
2023/07/15 01:52:08;;;;;;;3.53;2.55;;;;;;;21.65;48.38;100335.72;5041013;28;20295;-82
2023/07/15 01:54:33;;;;;;;2.85;2.55;;;;;;;21.46;49.34;100333.91;5014606;28;20402;-82
2023/07/15 01:56:58;;;;;;;2.83;2.30;;;;;;;21.36;50.08;100333.06;5023829;28;20025;-82
2023/07/15 01:59:24;;;;;;;3.60;2.45;;;;;;;21.25;50.65;100341.25;5017298;28;20567;-82
2023/07/15 02:01:49;;;;;;;3.60;2.65;;;;;;;21.33;50.57;100336.03;5036720;28;20032;-82
2023/07/15 02:04:14;;;;;;;6.43;2.63;;;;;;;21.18;50.66;100340.97;5042970;28;20500;-82
2023/07/15 02:06:40;;;;;;;4.13;2.38;;;;;;;21.13;50.84;100346.78;5028258;28;20045;-82
2023/07/15 02:09:07;;;;;;;4.90;2.45;;;;;;;21.13;49.90;100345.94;5021884;28;20529;-82
2023/07/15 02:11:34;;;;;;;4.57;2.17;;;;;;;21.10;50.47;100341.66;5022310;28;20037;-82
2023/07/15 02:13:59;;;;;;;3.80;2.10;;;;;;;21.26;49.59;100337.56;5014847;28;20030;-82
2023/07/15 02:16:24;;;;;;;4.82;2.53;;;;;;;21.13;49.23;100330.66;5026076;28;20033;-82
2023/07/15 02:18:50;;;;;;;3.92;2.42;;;;;;;21.09;50.45;100339.13;5031290;28;20052;-82
2023/07/15 02:21:16;;;;;;;4.75;2.53;;;;;;;21.09;49.59;100344.50;5018738;28;20030;-82
2023/07/15 02:23:41;;;;;;;2.90;2.40;;;;;;;21.15;49.88;100343.94;5030854;28;20538;-82
2023/07/15 02:26:06;;;;;;;6.40;2.33;;;;;;;21.23;49.30;100349.47;5023532;28;20094;-82
2023/07/15 02:28:32;;;;;;;4.43;2.13;;;;;;;21.26;48.81;100359.06;5030202;28;20048;-82
2023/07/15 02:30:59;;;;;;;4.05;2.25;;;;;;;21.33;48.58;100342.25;5020034;28;20135;-82
2023/07/15 02:33:24;;;;;;;3.35;2.13;;;;;;;21.32;49.00;100354.03;5023851;28;20037;-82
2023/07/15 02:35:50;;;;;;;3.25;2.35;;;;;;;21.37;48.61;100354.44;5020900;28;20044;-82
2023/07/15 02:38:15;;;;;;;4.03;2.50;;;;;;;21.29;49.72;100351.56;5026718;28;20834;-82
2023/07/15 02:40:40;;;;;;;4.82;2.35;;;;;;;21.22;49.94;100355.84;5018003;28;20056;-82
2023/07/15 02:43:06;;;;;;;4.35;2.65;;;;;;;21.22;50.14;100355.84;5024217;28;20030;-82
2023/07/15 02:45:31;;;;;;;5.35;2.55;;;;;;;21.18;51.50;100351.72;5030739;28;20469;-82
2023/07/15 02:47:56;;;;;;;3.03;2.33;;;;;;;21.07;51.14;100357.22;5027406;28;20463;-82
2023/07/15 02:50:22;;;;;;;5.43;2.90;;;;;;;20.95;51.34;100355.69;5024355;28;20112;-82
2023/07/15 02:52:47;;;;;;;7.85;2.80;;;;;;;20.90;52.27;100348.03;5024927;28;20029;-82
2023/07/15 02:55:12;;;;;;;4.35;2.72;;;;;;;20.82;51.51;100348.72;5028332;28;20155;-82
2023/07/15 02:57:38;;;;;;;3.90;2.30;;;;;;;20.74;51.42;100340.50;5016622;28;20044;-82
2023/07/15 03:00:08;;;;;;;5.55;2.75;;;;;;;20.63;52.55;100346.00;5019884;28;20050;-82
2023/07/15 03:02:34;;;;;;;7.60;2.58;;;;;;;20.58;53.45;100350.97;5029951;28;20052;-82
2023/07/15 03:04:59;;;;;;;3.25;2.47;;;;;;;20.25;53.94;100347.56;5027054;28;20025;-82
2023/07/15 03:07:24;;;;;;;6.70;2.70;;;;;;;20.22;54.10;100342.47;5035549;28;20029;-82
2023/07/15 03:09:50;;;;;;;7.22;2.58;;;;;;;20.21;55.26;100347.97;5026465;28;20104;-82
2023/07/15 03:12:15;;;;;;;3.45;2.30;;;;;;;20.25;55.21;100344.03;5024417;28;20036;-82
2023/07/15 03:14:43;;;;;;;3.53;2.80;;;;;;;20.19;54.67;100339.19;5024790;28;21168;-82
2023/07/15 03:17:10;;;;;;;3.30;2.72;;;;;;;20.18;55.45;100332.13;5019096;28;20462;-82
2023/07/15 03:19:35;;;;;;;2.88;2.42;;;;;;;20.09;54.84;100334.63;5048617;28;20476;-82
2023/07/15 03:22:01;;;;;;;4.20;2.42;;;;;;;20.14;54.23;100339.59;5016670;28;20022;-82
2023/07/15 03:24:26;;;;;;;5.43;2.65;;;;;;;20.13;55.42;100344.13;5027651;28;20036;-82
2023/07/15 03:26:52;;;;;;;3.88;2.40;;;;;;;20.02;56.22;100344.22;5028810;28;20404;-82
2023/07/15 03:29:18;;;;;;;4.18;2.65;;;;;;;19.96;56.85;100334.06;5031993;28;20497;-82
2023/07/15 03:31:43;;;;;;;5.65;2.78;;;;;;;19.99;57.08;100344.50;5031618;28;20045;-82
2023/07/15 03:34:08;;;;;;;3.80;2.60;;;;;;;19.97;56.87;100351.00;5026982;28;20118;-82
2023/07/15 03:36:34;;;;;;;4.07;2.95;;;;;;;19.91;57.48;100349.69;5029989;28;20041;-82
2023/07/15 03:38:59;;;;;;;5.78;2.70;;;;;;;19.88;57.25;100345.44;5035703;28;20027;-82
2023/07/15 03:41:24;;;;;;;2.67;2.47;;;;;;;19.77;57.22;100350.91;5024132;28;20084;-82
2023/07/15 03:43:50;;;;;;;3.47;2.45;;;;;;;19.65;57.67;100345.72;5033706;28;20017;-82
2023/07/15 03:46:15;;;;;;;3.13;2.67;;;;;;;19.49;58.60;100351.50;5037811;28;20025;-82
2023/07/15 03:48:40;;;;;;;7.15;2.75;;;;;;;19.36;58.48;100354.41;5031611;28;20025;-82
2023/07/15 03:51:08;;;;;;;5.80;3.15;;;;;;;19.21;57.42;100351.19;5021103;28;20034;-82
2023/07/15 03:53:34;;;;;;;4.25;2.50;;;;;;;19.07;58.54;100344.31;5029472;28;20045;-82
2023/07/15 03:56:00;;;;;;;6.32;3.03;;;;;;;19.13;58.22;100350.13;5029593;28;20042;-82
2023/07/15 03:58:25;;;;;;;5.07;2.72;;;;;;;19.23;57.95;100346.53;5025934;28;20041;-82
2023/07/15 04:00:50;;;;;;;5.70;3.00;;;;;;;19.23;58.00;100346.53;5022265;28;20021;-82
2023/07/15 04:03:16;;;;;;;3.13;2.83;;;;;;;19.29;57.47;100346.00;5025211;28;20017;-82
2023/07/15 04:05:41;;;;;;;3.97;2.38;;;;;;;19.34;56.95;100343.78;5025506;28;20022;-82
2023/07/15 04:08:06;;;;;;;3.25;2.55;;;;;;;19.37;57.29;100340.84;5021375;28;20629;-82
2023/07/15 04:10:32;;;;;;;4.88;2.60;;;;;;;19.44;57.75;100346.53;5026129;28;20045;-82
2023/07/15 04:12:57;;;;;;;4.03;2.53;;;;;;;19.55;57.47;100338.44;5018104;28;20084;-82
2023/07/15 04:15:22;;;;;;;3.58;2.83;;;;;;;19.55;58.19;100340.28;5025116;28;20044;-82
2023/07/15 04:17:48;;;;;;;5.65;2.60;;;;;;;19.57;57.46;100333.78;5024915;28;20200;-82
2023/07/15 04:20:15;;;;;;;5.75;2.60;;;;;;;19.68;57.03;100340.09;5026546;28;20370;-82
2023/07/15 04:22:41;;;;;;;4.32;2.55;;;;;;;19.66;59.25;100340.22;5028640;28;20490;-82
2023/07/15 04:25:07;;;;;;;3.20;2.80;;;;;;;19.74;58.84;100343.09;5029110;28;20204;-82
2023/07/15 04:27:32;;;;;;;9.80;2.70;;;;;;;19.72;57.82;100347.72;5024222;28;20036;-82
2023/07/15 04:29:57;;;;;;;3.67;2.85;;;;;;;19.73;58.27;100349.47;5030809;28;20022;-82
2023/07/15 04:32:23;;;;;;;4.38;2.90;;;;;;;19.72;58.07;100347.72;5033117;28;20038;-82
2023/07/15 04:34:50;;;;;;;3.45;2.45;;;;;;;19.79;56.01;100345.38;5020632;28;20027;-82
2023/07/15 04:37:18;;;;;;;4.28;2.83;;;;;;;19.85;58.04;100355.56;5030839;28;20464;-82
2023/07/15 04:39:44;;;;;;;5.70;2.83;;;;;;;19.90;58.18;100357.88;5029545;28;20088;-82
2023/07/15 04:42:09;;;;;;;6.38;3.10;;;;;;;19.91;58.97;100356.88;5016700;28;20050;-82
2023/07/15 04:44:35;;;;;;;4.97;2.60;;;;;;;19.96;59.36;100360.00;5033647;28;20476;-82
2023/07/15 04:47:00;;;;;;;5.05;2.63;;;;;;;19.99;59.15;100362.44;5040441;28;20024;-82
2023/07/15 04:49:25;;;;;;;4.72;2.50;;;;;;;19.97;58.38;100362.56;5041867;28;20093;-82
2023/07/15 04:51:50;;;;;;;3.08;2.55;;;;;;;20.02;57.16;100370.22;5029568;28;20112;-82
2023/07/15 04:54:16;;;;;;;3.10;2.42;;;;;;;20.05;56.54;100361.88;5054895;28;20028;-82
2023/07/15 04:56:41;;;;;;;2.90;2.50;;;;;;;20.09;57.62;100366.00;5032653;28;20025;-82
2023/07/15 04:59:07;;;;;;;3.63;2.63;;;;;;;20.14;58.20;100369.13;5029173;28;20043;-82
2023/07/15 05:01:33;;;;;;;6.60;2.80;;;;;;;20.13;57.75;100372.81;5025234;28;20588;-82
2023/07/15 05:03:59;;;;;;;6.57;2.60;;;;;;;20.16;57.45;100369.00;5042934;28;20474;-82
2023/07/15 05:06:25;;;;;;;4.22;2.75;;;;;;;20.22;56.49;100363.94;5025470;28;20033;-82
2023/07/15 05:08:51;;;;;;;3.72;2.38;;;;;;;20.30;56.53;100361.44;5035074;28;20028;-82
2023/07/15 05:11:17;;;;;;;5.13;2.70;;;;;;;20.32;56.41;100354.09;5025234;28;20109;-82
2023/07/15 05:13:43;;;;;;;3.38;2.38;;;;;;;20.39;55.83;100357.94;5021998;28;20560;-82
2023/07/15 05:16:08;;;;;;;3.47;2.55;;;;;;;20.46;55.88;100355.53;5023873;28;20057;-82
2023/07/15 05:18:34;;;;;;;3.38;2.65;;;;;;;20.49;57.28;100360.69;5033122;28;20029;-82
2023/07/15 05:20:59;;;;;;;6.43;2.80;;;;;;;20.50;56.71;100358.84;5027799;28;20030;-82
2023/07/15 05:23:28;;;;;;;5.72;2.90;;;;;;;20.56;57.11;100364.53;5027836;28;20036;-82
2023/07/15 05:25:55;;;;;;;4.78;2.92;;;;;;;20.65;56.58;100373.56;5031876;28;20214;-82
2023/07/15 05:28:20;;;;;;;6.10;2.67;;;;;;;20.74;56.15;100367.38;5028321;28;20080;-82
2023/07/15 05:30:45;;;;;;;2.75;2.55;;;;;;;20.81;56.63;100363.16;5027912;28;20049;-82
2023/07/15 05:33:10;;;;;;;5.18;2.70;;;;;;;20.90;56.90;100353.41;5025595;28;20025;-82
2023/07/15 05:35:36;;;;;;;4.13;2.47;;;;;;;20.99;56.53;100362.47;5029850;28;20025;-82
2023/07/15 05:38:01;;;;;;;5.07;2.75;;;;;;;21.07;56.82;100362.59;5022070;28;20480;-82
2023/07/15 05:40:26;;;;;;;6.97;2.60;;;;;;;21.13;56.72;100365.59;5024329;28;20022;-82
2023/07/15 05:42:52;;;;;;;5.22;2.58;;;;;;;21.21;56.06;100370.25;5019317;28;20028;-82
2023/07/15 05:45:17;;;;;;;2.72;2.30;;;;;;;21.31;56.27;100367.59;5023672;28;20017;-82
2023/07/15 05:47:43;;;;;;;5.75;2.35;;;;;;;21.36;56.64;100368.03;5024141;28;20033;-82
2023/07/15 05:50:09;;;;;;;7.53;2.33;;;;;;;21.43;56.63;100379.06;5027810;28;20113;-82
2023/07/15 05:52:35;;;;;;;3.63;2.47;;;;;;;21.50;55.43;100381.03;5021869;28;20588;-82
2023/07/15 05:55:01;;;;;;;4.20;2.35;;;;;;;21.67;55.21;100375.91;5022019;28;20369;-82
2023/07/15 05:57:26;;;;;;;6.22;2.75;;;;;;;21.87;54.87;100374.88;5016326;28;20061;-82
2023/07/15 05:59:52;;;;;;;5.15;2.50;;;;;;;22.13;53.95;100369.72;5035202;28;20079;-82
2023/07/15 06:02:18;;;;;;;4.75;2.70;;;;;;;22.42;53.76;100380.34;5025398;28;20025;-82
2023/07/15 06:04:43;;;;;;;5.35;2.67;;;;;;;22.47;53.14;100374.53;5019601;28;20024;-82
2023/07/15 06:07:08;;;;;;;3.80;2.28;;;;;;;22.46;53.07;100378.22;5031507;28;20120;-82
2023/07/15 06:09:34;;;;;;;2.83;2.40;;;;;;;22.42;52.39;100375.81;5027683;28;20059;-82
2023/07/15 06:11:59;;;;;;;8.38;2.35;;;;;;;22.45;51.49;100366.59;5019694;28;20277;-82
2023/07/15 06:14:24;;;;;;;4.30;2.47;;;;;;;22.50;51.40;100368.84;5015011;28;20032;-82
2023/07/15 06:16:50;;;;;;;5.97;2.60;;;;;;;22.59;51.92;100381.41;5015793;28;20033;-82
2023/07/15 06:19:15;;;;;;;4.53;2.10;;;;;;;22.77;51.85;100381.47;5039872;28;20072;-82
2023/07/15 06:21:41;;;;;;;5.55;1.90;;;;;;;22.94;52.37;100380.66;5022853;28;20096;-81
2023/07/15 06:24:07;;;;;;;2.72;1.88;;;;;;;23.10;52.81;100385.38;5017793;28;20029;-82
2023/07/15 06:26:32;;;;;;;3.00;1.95;;;;;;;23.24;53.10;100379.44;5026610;28;20375;-83
2023/07/15 06:29:00;;;;;;;2.65;1.55;;;;;;;23.28;53.37;100388.91;5024963;28;20033;-82
2023/07/15 06:31:26;;;;;;;3.35;1.85;;;;;;;23.43;53.62;100389.22;5018796;28;20037;-82
2023/07/15 06:33:52;;;;;;;2.17;1.58;;;;;;;23.44;53.75;100388.19;5024837;28;20170;-82
2023/07/15 06:36:17;;;;;;;2.15;1.45;;;;;;;23.61;53.49;100375.69;5026557;28;20122;-81
2023/07/15 06:38:43;;;;;;;5.07;2.10;;;;;;;23.78;53.56;100387.47;5018267;28;20049;-81
2023/07/15 06:41:08;;;;;;;5.25;1.85;;;;;;;23.97;52.91;100391.81;5014851;28;20049;-81
2023/07/15 06:43:33;;;;;;;2.50;1.83;;;;;;;24.04;52.51;100390.19;5021851;28;20480;-81
2023/07/15 06:45:59;;;;;;;2.55;1.38;;;;;;;24.10;52.10;100384.97;5019966;28;20020;-81
2023/07/15 06:48:24;;;;;;;3.47;1.55;;;;;;;23.96;52.79;100388.28;5024696;28;20392;-81
2023/07/15 06:50:50;;;;;;;2.90;1.70;;;;;;;24.01;52.44;100385.09;5025500;28;20025;-81
2023/07/15 06:53:15;;;;;;;2.85;1.92;;;;;;;24.07;52.41;100388.03;5015772;28;20032;-81
2023/07/15 06:55:40;;;;;;;4.97;2.30;;;;;;;24.20;52.27;100374.06;5017978;28;20541;-81
2023/07/15 06:58:06;;;;;;;3.53;1.88;;;;;;;24.29;52.34;100374.94;5025859;28;20288;-81
2023/07/15 07:00:32;;;;;;;6.95;1.80;;;;;;;24.28;51.86;100362.47;5026280;28;20032;-81
2023/07/15 07:02:59;;;;;;;4.10;1.70;;;;;;;24.21;52.88;100375.78;5024954;28;20424;-81
2023/07/15 07:05:26;;;;;;;4.22;1.90;;;;;;;24.14;52.96;100385.50;5027899;28;20028;-81
2023/07/15 07:07:51;;;;;;;2.13;1.92;;;;;;;24.35;53.64;100390.53;5026425;28;20530;-81
2023/07/15 07:10:16;;;;;;;5.78;2.08;;;;;;;24.58;51.42;100385.44;5022134;28;20069;-81
2023/07/15 07:12:42;;;;;;;3.50;1.83;;;;;;;24.55;51.96;100381.19;5009957;28;20400;-81
2023/07/15 07:15:07;;;;;;;4.07;1.83;;;;;;;24.82;50.85;100377.38;5025985;28;20080;-81
2023/07/15 07:17:33;;;;;;;3.22;2.00;;;;;;;25.06;49.50;100384.69;5025106;28;20033;-81
2023/07/15 07:19:58;;;;;;;2.67;1.70;;;;;;;25.03;49.82;100390.44;5025546;28;20026;-81
2023/07/15 07:22:24;;;;;;;3.65;1.63;;;;;;;25.05;50.18;100384.88;5027722;28;20291;-81
2023/07/15 07:24:51;;;;;;;2.03;1.80;;;;;;;25.14;48.31;100389.31;5022788;28;20029;-81
2023/07/15 07:27:17;;;;;;;2.22;1.73;;;;;;;25.21;48.07;100394.91;5026913;28;20662;-81
2023/07/15 07:29:43;;;;;;;2.63;1.52;;;;;;;25.14;48.16;100397.44;5025603;28;20025;-81
2023/07/15 07:32:08;;;;;;;3.55;1.80;;;;;;;25.16;48.51;100395.41;5021081;28;20030;-81
2023/07/15 07:34:33;;;;;;;2.40;1.90;;;;;;;25.07;48.25;100396.38;5034488;28;20022;-81
2023/07/15 07:36:59;;;;;;;3.13;1.85;;;;;;;25.19;48.35;100404.03;5016379;28;20030;-81
2023/07/15 07:39:24;;;;;;;3.00;1.90;;;;;;;25.14;48.25;100405.56;5034751;28;20029;-81
2023/07/15 07:41:49;;;;;;;6.80;1.85;;;;;;;25.17;48.47;100413.31;5027045;28;20052;-81
2023/07/15 07:44:15;;;;;;;2.75;1.63;;;;;;;25.46;48.30;100412.88;5016055;28;20026;-81
2023/07/15 07:46:40;;;;;;;3.75;2.00;;;;;;;26.10;47.54;100404.84;5032230;28;20481;-81
2023/07/15 07:49:05;;;;;;;5.32;1.80;;;;;;;26.74;45.90;100388.56;5049720;28;20383;-82
2023/07/15 07:51:30;;;;;;;4.10;1.88;;;;;;;27.61;44.21;100394.59;5025656;28;20030;-81
2023/07/15 07:53:56;;;;;;;2.30;1.73;;;;;;;27.86;43.95;100382.50;5032484;28;20029;-81
2023/07/15 07:56:21;;;;;;;2.55;1.63;;;;;;;27.83;43.63;100390.16;5019842;28;20292;-81
2023/07/15 07:58:47;;;;;;;3.67;1.50;;;;;;;27.42;44.83;100398.69;5026030;28;20026;-81
2023/07/15 08:01:12;;;;;;;3.22;1.45;;;;;;;27.33;45.44;100387.03;5033629;28;20021;-81
2023/07/15 08:03:37;;;;;;;2.42;1.50;;;;;;;27.39;45.88;100382.75;5019369;28;20112;-81
2023/07/15 08:06:04;;;;;;;5.18;1.50;;;;;;;27.65;45.03;100372.34;5035088;28;20092;-81
2023/07/15 08:08:30;;;;;;;1.75;1.42;;;;;;;27.68;45.57;100392.84;5030249;28;20074;-82
2023/07/15 08:10:55;;;;;;;3.72;1.30;;;;;;;27.52;45.31;100399.25;5031292;28;20033;-82
2023/07/15 08:13:20;;;;;;;1.95;1.30;;;;;;;27.44;45.61;100404.75;5020403;28;20071;-81
2023/07/15 08:15:46;;;;;;;3.65;1.73;;;;;;;27.51;45.93;100413.00;5032466;28;20029;-81
2023/07/15 08:18:11;;;;;;;4.93;1.52;;;;;;;27.30;46.09;100409.09;5034288;28;20116;-81
2023/07/15 08:20:38;;;;;;;2.72;1.42;;;;;;;27.67;46.29;100410.16;5042026;28;20033;-81
2023/07/15 08:23:03;;;;;;;2.50;1.50;;;;;;;27.76;45.80;100403.66;5028285;28;20144;-81
2023/07/15 08:25:29;;;;;;;4.13;1.38;;;;;;;27.88;45.48;100402.16;5021888;28;20551;-81
2023/07/15 08:27:54;;;;;;;2.00;1.35;;;;;;;28.39;44.86;100410.47;5026571;28;20111;-82
2023/07/15 08:30:20;;;;;;;3.60;1.52;;;;;;;29.27;42.18;100410.53;5031400;28;20483;-83
2023/07/15 08:32:46;;;;;;;2.33;1.17;;;;;;;29.67;42.06;100417.22;5032165;28;20048;-83
2023/07/15 08:35:11;;;;;;;3.63;1.42;;;;;;;28.80;41.95;100404.53;5022619;28;20113;-82
2023/07/15 08:37:36;;;;;;;5.05;1.52;;;;;;;28.27;43.75;100416.56;5023517;28;20075;-81
2023/07/15 08:40:03;;;;;;;3.25;1.67;;;;;;;27.67;45.55;100415.59;5030102;28;20088;-81
2023/07/15 08:42:29;;;;;;;5.25;1.77;;;;;;;27.70;45.48;100413.38;5028335;28;20056;-81
2023/07/15 08:44:54;;;;;;;3.67;1.80;;;;;;;27.80;45.39;100426.72;5020081;28;20056;-82
2023/07/15 08:47:22;;;;;;;3.50;1.80;;;;;;;27.81;44.06;100431.13;5025140;28;20061;-81
2023/07/15 08:49:50;;;;;;;5.65;1.83;;;;;;;27.93;44.65;100432.38;5032898;28;20369;-81
2023/07/15 08:52:17;;;;;;;5.47;1.70;;;;;;;28.00;44.01;100439.78;5033309;28;20400;-81
2023/07/15 08:54:43;;;;;;;4.93;1.63;;;;;;;27.68;44.34;100444.44;5023665;28;20114;-81
2023/07/15 08:57:08;;;;;;;5.07;1.77;;;;;;;27.36;46.35;100440.94;5016821;28;20117;-81
2023/07/15 08:59:34;;;;;;;2.85;1.60;;;;;;;26.98;46.57;100444.56;5013567;28;20026;-81
2023/07/15 09:01:59;;;;;;;6.97;2.35;;;;;;;26.60;46.79;100453.38;5026445;28;20036;-82
2023/07/15 09:04:25;;;;;;;4.20;1.58;;;;;;;26.39;46.80;100480.16;5030158;28;20088;-81
2023/07/15 09:06:52;;;;;;;4.28;1.88;;;;;;;26.18;47.00;100483.44;5018651;28;20029;-81
2023/07/15 09:09:18;;;;;;;2.30;1.88;;;;;;;25.90;46.23;100475.66;5018141;28;20021;-81
2023/07/15 09:11:43;;;;;;;1.98;1.80;;;;;;;25.68;46.91;100476.31;5023760;28;20080;-82
2023/07/15 09:14:15;;;;;;;6.80;2.20;;;;;;;25.39;47.39;100493.88;5025717;28;20021;-81
2023/07/15 09:16:41;;;;;;;4.50;2.05;;;;;;;25.32;47.53;100476.63;5020461;28;20060;-81
2023/07/15 09:19:07;;;;;;;2.97;1.95;;;;;;;25.28;47.59;100463.59;5032777;28;20061;-81
2023/07/15 09:21:32;;;;;;;3.63;2.25;;;;;;;25.36;47.89;100469.00;5033126;28;20021;-81
2023/07/15 09:24:00;;;;;;;3.33;1.67;;;;;;;25.50;47.98;100462.06;5033860;28;20580;-81
2023/07/15 09:26:26;;;;;;;4.25;1.90;;;;;;;25.67;47.65;100461.06;5031663;28;20371;-82
2023/07/15 09:28:51;;;;;;;5.30;2.10;;;;;;;25.84;47.56;100470.09;5022573;28;20135;-82
2023/07/15 09:31:26;;;;;;;6.60;1.67;;;;;;;26.01;46.90;100465.50;5028749;28;20044;-81
2023/07/15 09:34:00;;;;;;;6.80;1.92;;;;;;;26.10;46.95;100456.34;5032672;28;20476;-81
2023/07/15 09:36:33;;;;;;;4.15;1.98;;;;;;;26.15;46.79;100462.94;5019288;28;20465;-81
2023/07/15 09:39:19;;;;;;;3.65;1.90;;;;;;;26.23;46.52;100467.50;5032722;28;20413;-81
2023/07/15 09:41:58;;;;;;;4.35;2.17;;;;;;;26.32;46.19;100479.19;5032049;28;20048;-81
2023/07/15 09:44:41;;;;;;;7.80;1.90;;;;;;;26.15;46.74;100475.63;5021973;28;20034;-81
2023/07/15 09:47:07;;;;;;;3.97;2.13;;;;;;;26.14;46.88;100482.06;5033266;28;20517;-81
2023/07/15 09:49:34;;;;;;;2.92;1.95;;;;;;;26.18;46.68;100483.44;5019079;28;20079;-82
2023/07/15 09:52:01;;;;;;;2.92;1.73;;;;;;;26.18;46.33;100500.53;5027352;28;20037;-81
2023/07/15 09:54:28;;;;;;;6.30;2.08;;;;;;;26.02;46.79;100495.16;5019056;28;20044;-81
2023/07/15 09:56:59;;;;;;;4.35;1.52;;;;;;;25.82;47.25;100505.44;5026913;28;20017;-82
2023/07/15 09:59:28;;;;;;;3.40;1.88;;;;;;;25.80;48.16;100512.06;5012099;28;20026;-82
2023/07/15 10:01:57;;;;;;;3.80;2.30;;;;;;;25.61;48.45;100502.38;5022865;28;20503;-81
2023/07/15 10:04:33;;;;;;;4.30;1.90;;;;;;;25.51;48.60;100509.78;5025476;28;20021;-81
2023/07/15 10:07:00;;;;;;;4.63;1.75;;;;;;;25.34;49.86;100511.63;5020588;28;20032;-81
2023/07/15 10:09:26;;;;;;;2.55;1.50;;;;;;;25.19;50.54;100511.41;5031579;28;20021;-81
2023/07/15 10:11:53;;;;;;;2.67;1.70;;;;;;;25.04;51.57;100499.47;5015855;28;20048;-82
2023/07/15 10:14:21;;;;;;;5.25;2.40;;;;;;;24.99;52.45;100504.53;5023572;28;20391;-82
2023/07/15 10:17:07;;;;;;;2.75;1.75;;;;;;;24.80;52.86;100503.78;5020963;28;20045;-82
2023/07/15 10:19:49;;;;;;;2.15;1.67;;;;;;;24.45;53.99;100499.38;5021072;28;20028;-82
2023/07/15 10:22:21;;;;;;;7.00;2.20;;;;;;;24.16;57.57;100475.34;5023833;28;20535;-81
2023/07/15 10:24:57;;;;;;;3.30;1.83;;;;;;;24.13;56.15;100454.06;5024393;28;20049;-82
2023/07/15 10:27:26;;;;;;;6.15;2.13;;;;;;;23.97;58.50;100462.03;5023527;28;20112;-82
2023/07/15 10:30:27;;;;;;;5.50;2.10;;;;;;;24.09;56.21;100463.47;5023306;28;20136;-82
2023/07/15 10:32:59;;;;;;;6.88;2.20;;;;;;;24.05;57.44;100472.91;5028780;28;20027;-82
2023/07/15 10:35:29;;;;;;;3.05;2.20;;;;;;;24.09;58.85;100474.28;5025653;28;20171;-82
2023/07/15 10:37:57;;;;;;;2.13;1.70;;;;;;;24.09;58.40;100474.28;5028595;28;20114;-82
2023/07/15 10:40:57;;;;;;;3.28;1.80;;;;;;;24.30;57.27;100473.94;5017578;28;20033;-82
2023/07/15 10:43:34;;;;;;;4.18;2.22;;;;;;;24.36;56.98;100474.16;5015970;28;20421;-81
2023/07/15 10:46:05;;;;;;;5.13;2.00;;;;;;;24.59;56.59;100477.16;5024654;28;20392;-82
2023/07/15 10:48:31;;;;;;;2.30;2.10;;;;;;;24.68;56.61;100469.94;5027748;28;20025;-82
2023/07/15 10:50:59;;;;;;;4.03;2.10;;;;;;;24.59;56.76;100479.88;5030638;28;20021;-81
2023/07/15 10:53:27;;;;;;;4.53;1.95;;;;;;;24.61;55.46;100483.25;5026682;28;20037;-82
2023/07/15 10:56:00;;;;;;;4.05;1.73;;;;;;;24.53;55.66;100468.84;5023288;28;20040;-82
2023/07/15 10:58:28;;;;;;;4.25;1.83;;;;;;;24.80;55.98;100481.31;5021415;28;20025;-82
2023/07/15 11:01:11;;;;;;;5.75;1.90;;;;;;;24.95;55.28;100485.09;5020170;28;20029;-82
2023/07/15 11:03:38;;;;;;;2.03;1.70;;;;;;;24.99;56.30;100491.00;5028097;28;20103;-81
2023/07/15 11:06:04;;;;;;;5.80;2.05;;;;;;;24.99;53.88;100499.13;5029701;28;20507;-81
2023/07/15 11:08:30;;;;;;;7.90;1.90;;;;;;;24.85;55.37;100487.91;5023839;28;20060;-81
2023/07/15 11:11:00;;;;;;;2.85;2.08;;;;;;;24.82;54.87;100493.66;5022429;28;20437;-81
2023/07/15 11:13:27;;;;;;;3.03;1.92;;;;;;;24.91;54.11;100483.72;5024149;28;20034;-80
2023/07/15 11:15:53;;;;;;;4.38;2.40;;;;;;;25.16;54.73;100481.97;5034265;28;20490;-81
2023/07/15 11:18:21;;;;;;;2.47;1.52;;;;;;;25.41;53.65;100489.16;5035772;28;20037;-80
2023/07/15 11:20:47;;;;;;;3.28;2.03;;;;;;;25.51;52.19;100477.28;5024899;28;20037;-81
2023/07/15 11:23:14;;;;;;;4.53;1.67;;;;;;;25.55;52.11;100484.91;5028974;28;20025;-81
2023/07/15 11:25:39;;;;;;;5.93;1.60;;;;;;;25.86;50.81;100478.88;5021028;28;20108;-81